createdAt,value
2018-10-18T00:00:30.233Z,101279.83
2018-10-18T00:02:59.082Z,101282.87
2018-10-18T00:05:27.877Z,101281.52
2018-10-18T00:07:56.789Z,101274.93
2018-10-18T00:10:25.560Z,101269.06
2018-10-18T00:12:54.364Z,101273.09
2018-10-18T00:15:23.213Z,101265.51
2018-10-18T00:17:52.024Z,101265.51
2018-10-18T00:20:20.809Z,101262.33
2018-10-18T00:22:49.604Z,101263.67
2018-10-18T00:25:18.357Z,101252.53
2018-10-18T00:27:47.085Z,101256.44
2018-10-18T00:30:16.231Z,101258.64
2018-10-18T00:32:45.492Z,101259.12
2018-10-18T00:35:14.280Z,101251.91
2018-10-18T00:37:43.112Z,101243.35
2018-10-18T00:40:12.854Z,101250.56
2018-10-18T00:42:42.135Z,101252.77
2018-10-18T00:45:11.498Z,101254.98
2018-10-18T00:47:40.281Z,101251.81
2018-10-18T00:50:10.734Z,101245.56
2018-10-18T00:52:39.639Z,101247.77
2018-10-18T00:55:09.757Z,101245.56
2018-10-18T00:57:38.895Z,101244.56
2018-10-18T01:00:09.132Z,101236.48
2018-10-18T01:02:37.924Z,101232.45
2018-10-18T01:05:06.922Z,101228.41
2018-10-18T01:07:35.742Z,101225.72
2018-10-18T01:10:04.814Z,101223.02
2018-10-18T01:12:33.563Z,101228.79
2018-10-18T01:15:02.621Z,101225.23
2018-10-18T01:17:31.429Z,101223.54
2018-10-18T01:20:00.203Z,101221.68
2018-10-18T01:22:29.022Z,101223.89
2018-10-18T01:24:57.825Z,101224.38
2018-10-18T01:27:26.705Z,101221.68
2018-10-18T01:29:55.496Z,101224.38
2018-10-18T01:32:24.241Z,101218.16
2018-10-18T01:34:53.030Z,101219.85
2018-10-18T01:37:21.816Z,101218.88
2018-10-18T01:39:50.522Z,101220.34
2018-10-18T01:42:19.353Z,101209.08
2018-10-18T01:44:48.084Z,101211.77
2018-10-18T01:47:16.857Z,101206.05
2018-10-18T01:49:46.335Z,101206.05
2018-10-18T01:52:15.123Z,101202.49
2018-10-18T01:54:43.893Z,101205.18
2018-10-18T01:57:12.686Z,101206.53
2018-10-18T01:59:41.483Z,101205.18
2018-10-18T02:02:10.453Z,101203.84
2018-10-18T02:04:39.170Z,101202.98
2018-10-18T02:07:08.041Z,101205.18
2018-10-18T02:09:36.803Z,101200.28
2018-10-18T02:12:06.049Z,101208.84
2018-10-18T02:14:34.737Z,101203.11
2018-10-18T02:17:03.591Z,101206.63
2018-10-18T02:19:32.526Z,101201.39
2018-10-18T02:22:01.349Z,101193.69
2018-10-18T02:24:30.181Z,101192.45
2018-10-18T02:26:58.930Z,101194.17
2018-10-18T02:29:27.733Z,101190.63
2018-10-18T02:31:56.546Z,101183.41
2018-10-18T02:34:25.346Z,101181.69
2018-10-18T02:36:54.079Z,101179.37
2018-10-18T02:39:22.797Z,101181.20
2018-10-18T02:41:51.611Z,101171.78
2018-10-18T02:44:20.325Z,101176.20
2018-10-18T02:46:49.084Z,101173.98
2018-10-18T02:49:17.845Z,101177.55
2018-10-18T02:51:46.560Z,101177.03
2018-10-18T02:54:15.412Z,101178.89
2018-10-18T02:56:44.193Z,101180.23
2018-10-18T02:59:12.909Z,101173.50
2018-10-18T03:01:41.705Z,101174.84
2018-10-18T03:04:10.729Z,101176.20
2018-10-18T03:06:39.504Z,101178.89
2018-10-18T03:09:10.036Z,101177.88
2018-10-18T03:11:38.802Z,101175.20
2018-10-18T03:14:07.802Z,101173.98
2018-10-18T03:16:36.588Z,101174.33
2018-10-18T03:19:05.875Z,101169.47
2018-10-18T03:21:34.631Z,101172.50
2018-10-18T03:24:03.512Z,101171.64
2018-10-18T03:26:32.291Z,101174.84
2018-10-18T03:29:01.048Z,101174.84
2018-10-18T03:31:29.947Z,101171.64
2018-10-18T03:33:58.722Z,101175.33
2018-10-18T03:36:27.584Z,101178.37
2018-10-18T03:38:56.347Z,101170.81
2018-10-18T03:41:25.820Z,101164.56
2018-10-18T03:43:54.566Z,101170.81
2018-10-18T03:46:23.310Z,101165.91
2018-10-18T03:48:52.050Z,101165.42
2018-10-18T03:51:20.763Z,101168.13
2018-10-18T03:53:49.515Z,101171.30
2018-10-18T03:56:18.409Z,101169.33
2018-10-18T03:58:47.221Z,101169.47
2018-10-18T04:01:16.007Z,101163.70
2018-10-18T04:03:44.812Z,101167.26
2018-10-18T04:06:14.310Z,101164.08
2018-10-18T04:08:42.966Z,101165.05
2018-10-18T04:11:11.666Z,101165.05
2018-10-18T04:13:40.584Z,101165.05
2018-10-18T04:16:09.380Z,101170.44
2018-10-18T04:18:38.164Z,101173.23
2018-10-18T04:21:07.362Z,101175.92
2018-10-18T04:23:36.357Z,101175.92
2018-10-18T04:26:05.366Z,101172.41
2018-10-18T04:28:34.549Z,101169.70
2018-10-18T04:31:04.236Z,101165.67
2018-10-18T04:33:33.478Z,101166.16
2018-10-18T04:36:02.303Z,101167.50
2018-10-18T04:38:31.155Z,101163.95
2018-10-18T04:40:59.937Z,101164.44
2018-10-18T04:43:28.682Z,101162.22
2018-10-18T04:45:57.565Z,101164.09
2018-10-18T04:48:26.473Z,101170.67
2018-10-18T04:50:55.203Z,101175.20
2018-10-18T04:53:23.955Z,101178.75
2018-10-18T04:55:52.676Z,101175.20
2018-10-18T04:58:21.496Z,101172.99
2018-10-18T05:00:50.244Z,101174.72
2018-10-18T05:03:19.104Z,101178.27
2018-10-18T05:05:52.823Z,101169.33
2018-10-18T05:08:22.894Z,101158.08
2018-10-18T05:10:51.631Z,101162.47
2018-10-18T05:13:21.270Z,101162.47
2018-10-18T05:15:49.952Z,101165.16
2018-10-18T05:18:18.872Z,101166.88
2018-10-18T05:20:47.942Z,101166.39
2018-10-18T05:23:16.752Z,101164.56
2018-10-18T05:25:46.405Z,101160.05
2018-10-18T05:28:15.164Z,101163.08
2018-10-18T05:30:43.916Z,101167.12
2018-10-18T05:33:13.409Z,101166.16
2018-10-18T05:35:42.204Z,101174.71
2018-10-18T05:38:11.002Z,101166.50
2018-10-18T05:40:39.800Z,101165.15
2018-10-18T05:43:08.711Z,101167.84
2018-10-18T05:45:37.476Z,101169.70
2018-10-18T05:48:06.555Z,101170.53
2018-10-18T05:50:35.357Z,101173.23
2018-10-18T05:53:04.212Z,101177.78
2018-10-18T05:55:32.994Z,101185.86
2018-10-18T05:58:02.140Z,101186.34
2018-10-18T06:00:30.979Z,101191.24
2018-10-18T06:02:59.753Z,101189.89
2018-10-18T06:05:28.544Z,101185.86
2018-10-18T06:07:57.354Z,101190.38
2018-10-18T06:10:37.452Z,101189.03
2018-10-18T06:13:06.465Z,101181.44
2018-10-18T06:15:35.264Z,101179.23
2018-10-18T06:18:04.576Z,101179.23
2018-10-18T06:20:33.438Z,101178.03
2018-10-18T06:23:02.355Z,101184.75
2018-10-18T06:25:31.230Z,101193.69
2018-10-18T06:27:59.982Z,101200.05
2018-10-18T06:30:28.745Z,101197.83
2018-10-18T06:32:57.516Z,101196.00
2018-10-18T06:35:26.358Z,101196.48
2018-10-18T06:37:55.148Z,101203.70
2018-10-18T06:40:23.934Z,101211.78
2018-10-18T06:42:52.724Z,101223.89
2018-10-18T06:45:21.463Z,101222.20
2018-10-18T06:47:50.333Z,101226.72
2018-10-18T06:50:20.435Z,101228.06
2018-10-18T06:52:50.077Z,101234.80
2018-10-18T06:55:18.982Z,101225.86
2018-10-18T06:57:47.699Z,101222.78
2018-10-18T07:00:18.007Z,101222.78
2018-10-18T07:02:46.759Z,101234.41
2018-10-18T07:05:15.928Z,101231.23
2018-10-18T07:07:45.181Z,101207.98
2018-10-18T07:10:14.084Z,101221.44
2018-10-18T07:12:43.354Z,101220.61
2018-10-18T07:15:13.294Z,101215.22
2018-10-18T07:17:42.817Z,101191.48
2018-10-18T07:20:13.330Z,101202.73
2018-10-18T07:22:42.364Z,101237.59
2018-10-18T07:25:12.534Z,101226.48
2018-10-18T07:27:42.093Z,101222.30
2018-10-18T07:30:12.667Z,101228.16
2018-10-18T07:32:41.613Z,101229.89
2018-10-18T07:35:11.750Z,101224.13
2018-10-18T07:37:40.444Z,101226.48
2018-10-18T07:40:12.433Z,101229.52
2018-10-18T07:42:41.251Z,101222.30
2018-10-18T07:45:11.115Z,101223.30
2018-10-18T07:47:40.055Z,101230.86
2018-10-18T07:50:09.097Z,101232.20
2018-10-18T07:52:38.017Z,101224.51
2018-10-18T07:55:08.108Z,101210.67
2018-10-18T07:57:37.876Z,101211.19
2018-10-18T08:00:08.929Z,101222.78
2018-10-18T08:02:37.729Z,101210.33
2018-10-18T08:05:07.424Z,101220.23
2018-10-18T08:07:36.328Z,101222.44
2018-10-18T08:10:06.638Z,101216.19
2018-10-18T08:12:35.418Z,101216.57
2018-10-18T08:15:04.196Z,101222.44
2018-10-18T08:17:33.042Z,101227.34
2018-10-18T08:20:01.733Z,101239.94
2018-10-18T08:22:30.779Z,101235.41
2018-10-18T08:24:59.585Z,101231.00
2018-10-18T08:27:28.348Z,101230.52
2018-10-18T08:29:57.102Z,101224.64
2018-10-18T08:32:26.070Z,101231.00
2018-10-18T08:34:54.884Z,101223.41
2018-10-18T08:37:23.813Z,101228.30
2018-10-18T08:39:52.736Z,101241.28
2018-10-18T08:42:21.475Z,101242.63
2018-10-18T08:44:50.379Z,101238.20
2018-10-18T08:47:19.138Z,101241.28
2018-10-18T08:49:48.105Z,101244.94
2018-10-18T08:52:17.124Z,101252.05
2018-10-18T08:54:45.915Z,101253.87
2018-10-18T08:57:14.660Z,101255.70
2018-10-18T08:59:43.462Z,101250.80
2018-10-18T09:02:12.199Z,101255.70
2018-10-18T09:04:41.035Z,101259.73
2018-10-18T09:07:10.007Z,101249.11
2018-10-18T09:09:38.770Z,101237.96
2018-10-18T09:12:07.583Z,101246.90
2018-10-18T09:14:36.412Z,101254.48
2018-10-18T09:17:05.461Z,101261.56
2018-10-18T09:19:34.247Z,101262.08
2018-10-18T09:22:03.502Z,101267.47
2018-10-18T09:24:32.358Z,101263.42
2018-10-18T09:27:01.152Z,101266.12
2018-10-18T09:29:29.948Z,101266.95
2018-10-18T09:31:58.700Z,101263.42
2018-10-18T09:34:27.465Z,101267.81
2018-10-18T09:36:56.245Z,101273.20
2018-10-18T09:39:25.137Z,101265.98
2018-10-18T09:41:53.883Z,101265.98
2018-10-18T09:44:22.758Z,101262.81
2018-10-18T09:46:51.639Z,101257.91
2018-10-18T09:49:20.365Z,101265.50
2018-10-18T09:51:49.310Z,101256.43
2018-10-18T09:54:18.185Z,101253.39
2018-10-18T09:56:46.980Z,101253.73
2018-10-18T09:59:15.803Z,101243.48
2018-10-18T10:01:48.122Z,101250.22
2018-10-18T10:04:17.027Z,101250.22
2018-10-18T10:06:45.752Z,101254.73
2018-10-18T10:09:14.602Z,101250.70
2018-10-18T10:11:43.453Z,101252.05
2018-10-18T10:14:12.384Z,101245.31
2018-10-18T10:16:41.259Z,101251.56
2018-10-18T10:19:10.089Z,101249.83
2018-10-18T10:21:38.886Z,101254.25
2018-10-18T10:24:07.669Z,101253.02
2018-10-18T10:26:36.558Z,101256.56
2018-10-18T10:29:05.459Z,101252.53
2018-10-18T10:31:34.228Z,101259.25
2018-10-18T10:34:03.075Z,101261.95
2018-10-18T10:36:31.980Z,101260.98
2018-10-18T10:39:00.874Z,101261.95
2018-10-18T10:41:29.632Z,101262.81
2018-10-18T10:43:58.382Z,101263.77
2018-10-18T10:46:27.270Z,101273.92
2018-10-18T10:48:56.043Z,101265.50
2018-10-18T10:51:24.805Z,101267.33
2018-10-18T10:53:53.676Z,101261.95
2018-10-18T10:56:22.467Z,101272.71
2018-10-18T10:58:51.281Z,101275.89
2018-10-18T11:01:22.290Z,101281.27
2018-10-18T11:03:52.329Z,101283.00
2018-10-18T11:06:21.201Z,101276.75
2018-10-18T11:08:49.953Z,101280.30
2018-10-18T11:11:19.257Z,101281.27
2018-10-18T11:13:48.141Z,101279.58
2018-10-18T11:16:16.918Z,101278.58
2018-10-18T11:18:45.762Z,101275.89
2018-10-18T11:21:15.920Z,101267.81
2018-10-18T11:23:44.768Z,101272.84
2018-10-18T11:26:13.658Z,101271.50
2018-10-18T11:28:42.428Z,101279.06
2018-10-18T11:31:11.250Z,101274.20
2018-10-18T11:33:40.016Z,101273.68
2018-10-18T11:36:08.928Z,101281.27
2018-10-18T11:38:37.634Z,101270.16
2018-10-18T11:41:06.361Z,101265.13
2018-10-18T11:43:35.078Z,101262.43
2018-10-18T11:46:04.086Z,101263.77
2018-10-18T12:15:49.181Z,101281.52
2018-10-18T12:18:46.965Z,101291.05
2018-10-18T12:21:44.781Z,101286.14
2018-10-18T12:24:43.669Z,101294.98
2018-10-18T12:27:41.762Z,101298.25
2018-10-18T12:30:40.489Z,101301.32
2018-10-18T12:33:39.237Z,101309.39
2018-10-18T12:36:38.515Z,101318.67
2018-10-18T12:39:36.346Z,101318.81
2018-10-18T12:42:34.341Z,101317.34
2018-10-18T12:45:32.358Z,101321.89
2018-10-18T12:48:31.228Z,101329.58
2018-10-18T12:51:30.138Z,101337.65
2018-10-18T12:54:28.136Z,101334.95
2018-10-18T12:57:26.012Z,101342.17
2018-10-18T13:00:24.804Z,101347.06
2018-10-18T13:03:22.816Z,101350.72
2018-10-18T13:06:20.811Z,101344.86
2018-10-18T13:09:18.893Z,101348.41
2018-10-18T13:12:16.812Z,101347.20
2018-10-18T13:15:14.633Z,101344.52
2018-10-18T13:18:12.728Z,101354.76
2018-10-18T13:21:10.421Z,101344.52
2018-10-18T13:24:08.448Z,101353.41
2018-10-18T13:27:06.547Z,101358.31
2018-10-18T13:30:04.689Z,101363.34
2018-10-18T13:33:02.762Z,101366.52
2018-10-18T13:36:01.675Z,101369.20
2018-10-18T13:38:59.752Z,101373.73
2018-10-18T13:41:57.748Z,101298.72
2018-10-18T13:44:55.853Z,101368.48
2018-10-18T13:47:53.584Z,101371.27
2018-10-18T13:50:51.574Z,101377.89
2018-10-18T13:53:52.775Z,101379.24
2018-10-18T13:56:50.992Z,101385.10
2018-10-18T14:00:00.792Z,101390.48
2018-10-18T14:03:00.865Z,101394.52
2018-10-18T14:05:58.761Z,101397.69
2018-10-18T14:08:56.807Z,101396.34
2018-10-18T14:11:55.474Z,101401.73
2018-10-18T14:14:53.599Z,101401.25
2018-10-18T14:17:51.804Z,101418.26
2018-10-18T14:20:49.616Z,101416.91
2018-10-18T14:23:48.402Z,101414.70
2018-10-18T14:26:47.553Z,101421.42
2018-10-18T14:29:45.462Z,101421.42
2018-10-18T14:32:44.415Z,101415.56
2018-10-18T14:35:44.447Z,101420.08
2018-10-18T14:38:42.704Z,101417.39
2018-10-18T14:41:43.636Z,101429.50
2018-10-18T14:44:42.001Z,101422.39
2018-10-18T14:47:42.203Z,101437.57
2018-10-18T14:50:45.042Z,101443.44
2018-10-18T14:53:44.599Z,101443.44
2018-10-18T14:56:42.771Z,101453.81
2018-10-18T14:59:44.770Z,101455.67
2018-10-18T15:02:43.725Z,101463.23
2018-10-18T15:05:42.360Z,101467.78
2018-10-18T15:08:41.154Z,101474.51
2018-10-18T15:11:39.015Z,101478.16
2018-10-18T15:14:36.928Z,101481.72
2018-10-18T15:19:35.662Z,101491.10
2018-10-18T15:22:04.502Z,101493.89
2018-10-18T15:24:33.357Z,101501.48
2018-10-18T15:27:02.351Z,101496.48
2018-10-18T15:29:31.026Z,101507.50
2018-10-18T15:32:00.003Z,101511.05
2018-10-18T15:34:28.869Z,101510.92
2018-10-18T15:36:57.798Z,101518.04
2018-10-18T15:39:26.666Z,101522.94
2018-10-18T15:41:55.528Z,101521.59
2018-10-18T15:44:24.446Z,101524.28
2018-10-18T15:46:54.247Z,101540.78
2018-10-18T15:49:23.156Z,101534.92
2018-10-18T15:51:52.095Z,101537.73
2018-10-18T15:54:22.043Z,101543.95
2018-10-18T15:56:51.030Z,101535.41
2018-10-18T15:59:20.074Z,101544.34
2018-10-18T16:01:49.035Z,101546.16
2018-10-18T16:04:18.052Z,101545.30
2018-10-18T16:06:47.117Z,101547.03
2018-10-18T16:09:16.105Z,101548.86
2018-10-18T16:11:44.992Z,101559.14
2018-10-18T16:14:14.162Z,101561.35
2018-10-18T16:16:43.003Z,101563.66
2018-10-18T16:19:11.872Z,101567.22
2018-10-18T16:21:41.663Z,101569.78
2018-10-18T16:24:10.835Z,101568.94
2018-10-18T16:26:39.819Z,101565.73
2018-10-18T16:29:09.048Z,101585.09
2018-10-18T16:31:37.832Z,101572.47
2018-10-18T16:34:06.786Z,101568.94
2018-10-18T16:36:35.641Z,101581.05
2018-10-18T16:39:06.510Z,101594.38
2018-10-18T16:41:35.509Z,101597.07
2018-10-18T16:44:04.597Z,101589.00
2018-10-18T16:46:33.467Z,101593.52
2018-10-18T16:49:02.368Z,101598.42
2018-10-18T16:51:31.221Z,101596.69
2018-10-18T16:54:00.354Z,101596.20
2018-10-18T16:56:29.114Z,101600.24
2018-10-18T16:58:58.013Z,101604.76
2018-10-18T17:01:27.075Z,101609.66
2018-10-18T17:03:55.963Z,101613.22
2018-10-18T17:06:24.986Z,101614.69
2018-10-18T17:08:53.926Z,101614.30
2018-10-18T17:11:22.898Z,101631.80
2018-10-18T17:13:51.867Z,101635.83
2018-10-18T17:16:20.734Z,101633.62
2018-10-18T17:18:49.719Z,101636.31
2018-10-18T17:21:18.766Z,101639.48
2018-10-18T17:23:47.768Z,101639.48
2018-10-18T17:26:16.893Z,101554.64
2018-10-18T17:28:45.649Z,101643.16
2018-10-18T17:31:14.588Z,101647.07
2018-10-18T17:33:43.505Z,101650.24
2018-10-18T17:36:12.438Z,101644.51
2018-10-18T17:38:41.350Z,101644.51
2018-10-18T17:41:10.274Z,101648.90
2018-10-18T17:43:39.157Z,101651.23
2018-10-18T17:46:08.096Z,101648.55
2018-10-18T17:48:37.062Z,101657.96
2018-10-18T17:51:06.012Z,101661.13
2018-10-18T17:53:34.908Z,101660.75
2018-10-18T17:56:04.102Z,101662.48
2018-10-18T17:58:32.948Z,101665.65
2018-10-18T18:01:01.790Z,101665.65
2018-10-18T18:03:30.682Z,101663.44
2018-10-18T18:05:59.628Z,101653.19
2018-10-18T18:08:28.429Z,101654.53
2018-10-18T18:10:57.340Z,101660.75
2018-10-18T18:13:26.137Z,101659.52
2018-10-18T18:15:55.025Z,101655.97
2018-10-18T18:18:23.880Z,101665.77
2018-10-18T18:20:52.700Z,101670.67
2018-10-18T18:23:21.534Z,101673.84
2018-10-18T18:25:50.421Z,101672.11
2018-10-18T18:28:19.196Z,101671.63
2018-10-18T18:30:48.154Z,101673.36
2018-10-18T18:33:17.043Z,101680.09
2018-10-18T18:35:45.851Z,101687.66
2018-10-18T18:38:14.761Z,101688.64
2018-10-18T18:40:43.609Z,101693.55
2018-10-18T18:43:12.488Z,101693.55
2018-10-18T18:45:41.306Z,101700.15
2018-10-18T18:48:10.121Z,101697.06
2018-10-18T18:50:39.090Z,101695.25
2018-10-18T18:53:07.950Z,101701.97
2018-10-18T18:55:36.812Z,101701.97
2018-10-18T18:58:05.772Z,101697.94
2018-10-18T19:00:34.944Z,101699.67
2018-10-18T19:03:03.833Z,101698.80
2018-10-18T19:05:32.715Z,101704.66
2018-10-18T19:08:01.837Z,101708.22
2018-10-18T19:10:31.132Z,101710.44
2018-10-18T19:12:59.952Z,101717.52
2018-10-18T19:15:28.905Z,101711.78
2018-10-18T19:17:57.724Z,101707.74
2018-10-18T19:20:26.603Z,101717.52
2018-10-18T19:22:55.532Z,101724.75
2018-10-18T19:25:24.617Z,101726.09
2018-10-18T19:27:53.414Z,101727.45
2018-10-18T19:30:22.385Z,101729.63
2018-10-18T19:32:51.262Z,101730.97
2018-10-18T19:35:20.069Z,101727.66
2018-10-18T19:37:48.930Z,101737.22
2018-10-18T19:40:17.846Z,101734.05
2018-10-18T19:42:46.824Z,101729.14
2018-10-18T19:45:15.672Z,101733.66
2018-10-18T19:47:44.559Z,101735.88
2018-10-18T19:50:13.481Z,101744.81
2018-10-18T19:52:42.480Z,101744.07
2018-10-18T19:55:11.659Z,101752.14
2018-10-18T19:57:40.945Z,101755.70
2018-10-18T20:00:10.791Z,101766.08
2018-10-18T20:02:39.700Z,101764.25
2018-10-18T20:05:09.102Z,101767.30
2018-10-18T20:07:38.389Z,101760.00
2018-10-18T20:10:08.206Z,101769.78
2018-10-18T20:12:37.082Z,101775.42
2018-10-18T20:15:06.723Z,101778.59
2018-10-18T20:17:35.653Z,101783.41
2018-10-18T20:20:05.079Z,101783.77
2018-10-18T20:22:34.007Z,101794.92
2018-10-18T20:25:03.312Z,101790.28
2018-10-18T20:27:32.247Z,101788.94
2018-10-18T20:30:01.387Z,101793.24
2018-10-18T20:32:30.710Z,101790.55
2018-10-18T20:34:59.784Z,101786.77
2018-10-18T20:37:29.205Z,101791.08
2018-10-18T20:39:58.656Z,101799.06
2018-10-18T20:42:27.572Z,101794.52
2018-10-18T20:44:56.788Z,101799.81
2018-10-18T20:47:26.434Z,101797.47
2018-10-18T20:49:55.343Z,101799.20
2018-10-18T20:52:24.254Z,101814.76
2018-10-18T20:54:53.317Z,101814.67
2018-10-18T20:57:22.403Z,101815.53
2018-10-18T20:59:52.181Z,101814.06
2018-10-18T21:02:21.029Z,101818.49
2018-10-18T21:04:49.930Z,101817.98
2018-10-18T21:07:19.468Z,101817.41
2018-10-18T21:09:48.437Z,101824.14
2018-10-18T21:12:17.751Z,101824.02
2018-10-18T21:14:46.632Z,101827.58
2018-10-18T21:17:15.650Z,101830.63
2018-10-18T21:19:44.771Z,101837.15
2018-10-18T21:22:13.943Z,101831.94
2018-10-18T21:24:43.654Z,101823.73
2018-10-18T21:27:13.247Z,101834.50
2018-10-18T21:29:42.190Z,101829.98
2018-10-18T21:32:11.109Z,101835.37
2018-10-18T21:34:39.963Z,101832.29
2018-10-18T21:37:08.764Z,101836.33
2018-10-18T21:39:37.654Z,101839.02
2018-10-18T21:42:06.522Z,101838.67
2018-10-18T21:44:36.632Z,101848.09
2018-10-18T21:47:06.018Z,101846.75
2018-10-18T21:49:35.160Z,101851.27
2018-10-18T21:52:04.276Z,101850.78
2018-10-18T21:54:33.763Z,101848.57
2018-10-18T21:57:03.567Z,101848.57
2018-10-18T21:59:32.774Z,101845.40
2018-10-18T22:02:01.608Z,101847.31
2018-10-18T22:04:30.761Z,101848.18
2018-10-18T22:07:00.855Z,101856.26
2018-10-18T22:09:29.858Z,101853.09
2018-10-18T22:11:59.141Z,101857.13
2018-10-18T22:14:28.360Z,101858.09
2018-10-18T22:16:57.647Z,101839.77
2018-10-18T22:19:26.449Z,101865.80
2018-10-18T22:21:55.312Z,101867.16
2018-10-18T22:24:24.146Z,101869.45
2018-10-18T22:26:52.991Z,101866.77
2018-10-18T22:29:21.781Z,101863.72
2018-10-18T22:36:46.213Z,101865.06
2018-10-18T22:39:15.151Z,101868.71
2018-10-18T22:41:43.921Z,101871.41
2018-10-18T22:44:12.818Z,101867.37
2018-10-18T22:46:41.594Z,101874.97
2018-10-18T22:49:10.358Z,101873.23
2018-10-18T22:51:39.239Z,101871.89
2018-10-18T22:54:08.072Z,101874.58
2018-10-18T22:56:36.965Z,101870.92
2018-10-18T22:59:05.830Z,101864.28
2018-10-18T23:01:34.618Z,101870.54
2018-10-18T23:04:03.406Z,101871.89
2018-10-18T23:06:32.211Z,101871.41
2018-10-18T23:09:00.983Z,101874.58
2018-10-18T23:11:29.728Z,101875.45
2018-10-18T23:13:58.514Z,101867.84
2018-10-18T23:16:27.385Z,101866.50
2018-10-18T23:18:56.463Z,101862.94
2018-10-18T23:21:25.568Z,101865.16
2018-10-18T23:23:55.057Z,101860.25
2018-10-18T23:26:23.822Z,101867.97
2018-10-18T23:28:52.637Z,101873.35
2018-10-18T23:31:21.403Z,101875.56
2018-10-18T23:33:50.179Z,101865.75
2018-10-18T23:36:18.940Z,101868.92
2018-10-18T23:38:47.712Z,101868.05
2018-10-18T23:41:16.611Z,101866.23
2018-10-18T23:43:45.385Z,101868.05
2018-10-18T23:46:14.142Z,101863.18
2018-10-18T23:48:42.987Z,101866.23
2018-10-18T23:51:11.996Z,101868.56
2018-10-18T23:53:40.938Z,101859.63
2018-10-18T23:56:09.772Z,101865.88
2018-10-18T23:58:38.573Z,101855.58
